sensor_id;sensor_type;location;lat;lon;timestamp;temperature;humidity
4487;DHT22;2256;48.740;9.106;2022-07-23T00:00:05;23.80;90.50
4487;DHT22;2256;48.740;9.106;2022-07-23T00:02:33;23.80;90.60
4487;DHT22;2256;48.740;9.106;2022-07-23T00:04:59;23.80;90.80
4487;DHT22;2256;48.740;9.106;2022-07-23T00:07:26;23.70;91.00
4487;DHT22;2256;48.740;9.106;2022-07-23T00:09:53;23.60;91.10
4487;DHT22;2256;48.740;9.106;2022-07-23T00:12:21;23.50;91.20
4487;DHT22;2256;48.740;9.106;2022-07-23T00:14:48;23.50;91.30
4487;DHT22;2256;48.740;9.106;2022-07-23T00:17:15;23.40;91.20
4487;DHT22;2256;48.740;9.106;2022-07-23T00:19:42;23.40;91.40
4487;DHT22;2256;48.740;9.106;2022-07-23T00:22:09;23.30;91.50
4487;DHT22;2256;48.740;9.106;2022-07-23T00:24:36;23.30;91.50
4487;DHT22;2256;48.740;9.106;2022-07-23T00:27:03;23.30;91.60
4487;DHT22;2256;48.740;9.106;2022-07-23T00:29:31;23.20;91.60
4487;DHT22;2256;48.740;9.106;2022-07-23T00:31:58;23.20;91.90
4487;DHT22;2256;48.740;9.106;2022-07-23T00:34:25;23.10;91.90
4487;DHT22;2256;48.740;9.106;2022-07-23T00:36:52;23.10;92.80
4487;DHT22;2256;48.740;9.106;2022-07-23T00:39:19;23.00;93.60
4487;DHT22;2256;48.740;9.106;2022-07-23T00:41:47;22.90;94.90
4487;DHT22;2256;48.740;9.106;2022-07-23T00:44:19;22.60;95.30
4487;DHT22;2256;48.740;9.106;2022-07-23T00:46:50;22.50;96.00
4487;DHT22;2256;48.740;9.106;2022-07-23T00:49:18;22.30;96.50
4487;DHT22;2256;48.740;9.106;2022-07-23T00:51:45;22.10;97.00
4487;DHT22;2256;48.740;9.106;2022-07-23T00:54:12;22.00;97.40
4487;DHT22;2256;48.740;9.106;2022-07-23T00:56:39;21.90;97.50
4487;DHT22;2256;48.740;9.106;2022-07-23T00:59:07;21.70;97.70
4487;DHT22;2256;48.740;9.106;2022-07-23T01:01:35;21.60;98.10
4487;DHT22;2256;48.740;9.106;2022-07-23T01:04:03;21.50;98.20
4487;DHT22;2256;48.740;9.106;2022-07-23T01:06:30;21.50;98.00
4487;DHT22;2256;48.740;9.106;2022-07-23T01:08:59;21.50;98.00
4487;DHT22;2256;48.740;9.106;2022-07-23T01:11:27;21.40;98.20
4487;DHT22;2256;48.740;9.106;2022-07-23T01:13:54;21.50;98.30
4487;DHT22;2256;48.740;9.106;2022-07-23T01:16:21;21.50;98.20
4487;DHT22;2256;48.740;9.106;2022-07-23T01:18:48;21.40;98.40
4487;DHT22;2256;48.740;9.106;2022-07-23T01:21:18;21.40;98.80
4487;DHT22;2256;48.740;9.106;2022-07-23T01:23:46;21.30;99.10
4487;DHT22;2256;48.740;9.106;2022-07-23T01:26:13;21.30;99.10
4487;DHT22;2256;48.740;9.106;2022-07-23T01:28:42;21.20;99.00
4487;DHT22;2256;48.740;9.106;2022-07-23T01:31:09;21.20;99.00
4487;DHT22;2256;48.740;9.106;2022-07-23T01:33:36;21.10;99.00
4487;DHT22;2256;48.740;9.106;2022-07-23T01:36:03;21.20;98.90
4487;DHT22;2256;48.740;9.106;2022-07-23T01:38:30;21.20;98.60
4487;DHT22;2256;48.740;9.106;2022-07-23T01:40:58;21.10;99.10
4487;DHT22;2256;48.740;9.106;2022-07-23T01:43:25;21.20;99.50
4487;DHT22;2256;48.740;9.106;2022-07-23T01:45:52;21.30;99.50
4487;DHT22;2256;48.740;9.106;2022-07-23T01:48:19;21.40;99.60
4487;DHT22;2256;48.740;9.106;2022-07-23T01:50:46;21.30;99.90
4487;DHT22;2256;48.740;9.106;2022-07-23T01:53:13;21.30;99.90
4487;DHT22;2256;48.740;9.106;2022-07-23T01:55:40;21.20;99.90
4487;DHT22;2256;48.740;9.106;2022-07-23T01:58:08;21.10;99.90
4487;DHT22;2256;48.740;9.106;2022-07-23T02:00:35;21.00;99.90
4487;DHT22;2256;48.740;9.106;2022-07-23T02:03:02;21.00;99.90
4487;DHT22;2256;48.740;9.106;2022-07-23T02:05:29;20.90;99.80
4487;DHT22;2256;48.740;9.106;2022-07-23T02:07:57;20.90;99.90
4487;DHT22;2256;48.740;9.106;2022-07-23T02:10:24;20.90;99.90
4487;DHT22;2256;48.740;9.106;2022-07-23T02:12:51;20.90;99.70
4487;DHT22;2256;48.740;9.106;2022-07-23T02:15:19;20.90;99.80
4487;DHT22;2256;48.740;9.106;2022-07-23T02:17:46;20.90;99.80
4487;DHT22;2256;48.740;9.106;2022-07-23T02:20:13;20.90;99.70
4487;DHT22;2256;48.740;9.106;2022-07-23T02:22:40;20.90;99.80
4487;DHT22;2256;48.740;9.106;2022-07-23T02:25:08;20.90;99.80
4487;DHT22;2256;48.740;9.106;2022-07-23T02:27:35;20.80;99.90
4487;DHT22;2256;48.740;9.106;2022-07-23T02:30:03;20.70;99.90
4487;DHT22;2256;48.740;9.106;2022-07-23T02:32:31;20.70;99.90
4487;DHT22;2256;48.740;9.106;2022-07-23T02:34:58;20.60;99.90
4487;DHT22;2256;48.740;9.106;2022-07-23T02:37:24;20.70;99.90
4487;DHT22;2256;48.740;9.106;2022-07-23T02:39:51;20.80;99.90
4487;DHT22;2256;48.740;9.106;2022-07-23T02:42:18;20.80;99.90
4487;DHT22;2256;48.740;9.106;2022-07-23T02:44:45;20.80;99.90
4487;DHT22;2256;48.740;9.106;2022-07-23T02:47:12;20.80;99.90
4487;DHT22;2256;48.740;9.106;2022-07-23T02:49:40;20.80;99.90
4487;DHT22;2256;48.740;9.106;2022-07-23T02:52:07;20.80;99.90
4487;DHT22;2256;48.740;9.106;2022-07-23T02:54:35;20.90;99.90
4487;DHT22;2256;48.740;9.106;2022-07-23T02:57:02;20.90;99.90
4487;DHT22;2256;48.740;9.106;2022-07-23T02:59:29;20.90;99.90
4487;DHT22;2256;48.740;9.106;2022-07-23T03:01:56;20.90;99.90
4487;DHT22;2256;48.740;9.106;2022-07-23T03:04:23;21.00;99.90
4487;DHT22;2256;48.740;9.106;2022-07-23T03:06:51;20.90;99.90
4487;DHT22;2256;48.740;9.106;2022-07-23T03:09:19;20.90;99.90
4487;DHT22;2256;48.740;9.106;2022-07-23T03:11:45;20.90;99.90
4487;DHT22;2256;48.740;9.106;2022-07-23T03:14:12;20.90;99.60
4487;DHT22;2256;48.740;9.106;2022-07-23T03:16:42;21.00;99.70
4487;DHT22;2256;48.740;9.106;2022-07-23T03:19:09;20.90;99.60
4487;DHT22;2256;48.740;9.106;2022-07-23T03:21:36;20.90;99.60
4487;DHT22;2256;48.740;9.106;2022-07-23T03:24:07;21.00;99.50
4487;DHT22;2256;48.740;9.106;2022-07-23T03:26:35;21.00;99.20
4487;DHT22;2256;48.740;9.106;2022-07-23T03:29:02;21.10;99.10
4487;DHT22;2256;48.740;9.106;2022-07-23T03:31:29;21.00;99.20
4487;DHT22;2256;48.740;9.106;2022-07-23T03:33:57;21.00;99.30
4487;DHT22;2256;48.740;9.106;2022-07-23T03:36:23;21.00;99.20
4487;DHT22;2256;48.740;9.106;2022-07-23T03:38:50;21.00;99.20
4487;DHT22;2256;48.740;9.106;2022-07-23T03:41:19;21.10;99.30
4487;DHT22;2256;48.740;9.106;2022-07-23T03:43:46;21.00;99.30
4487;DHT22;2256;48.740;9.106;2022-07-23T03:46:13;21.10;99.30
4487;DHT22;2256;48.740;9.106;2022-07-23T03:48:39;21.10;99.30
4487;DHT22;2256;48.740;9.106;2022-07-23T03:51:06;21.00;99.40
4487;DHT22;2256;48.740;9.106;2022-07-23T03:53:33;20.90;99.60
4487;DHT22;2256;48.740;9.106;2022-07-23T03:56:00;20.90;99.80
4487;DHT22;2256;48.740;9.106;2022-07-23T03:58:28;20.80;99.90
4487;DHT22;2256;48.740;9.106;2022-07-23T04:00:55;20.90;99.60
4487;DHT22;2256;48.740;9.106;2022-07-23T04:03:21;20.90;99.70
4487;DHT22;2256;48.740;9.106;2022-07-23T04:05:48;20.70;99.90
4487;DHT22;2256;48.740;9.106;2022-07-23T04:08:15;20.70;99.90
4487;DHT22;2256;48.740;9.106;2022-07-23T04:10:42;20.90;99.90
4487;DHT22;2256;48.740;9.106;2022-07-23T04:13:09;20.90;99.90
4487;DHT22;2256;48.740;9.106;2022-07-23T04:15:37;20.90;99.90
4487;DHT22;2256;48.740;9.106;2022-07-23T04:18:04;20.90;99.90
4487;DHT22;2256;48.740;9.106;2022-07-23T04:20:31;20.80;99.90
4487;DHT22;2256;48.740;9.106;2022-07-23T04:22:58;20.90;99.90
4487;DHT22;2256;48.740;9.106;2022-07-23T04:25:25;20.90;99.90
4487;DHT22;2256;48.740;9.106;2022-07-23T04:27:52;20.90;99.90
4487;DHT22;2256;48.740;9.106;2022-07-23T04:30:18;20.90;99.90
4487;DHT22;2256;48.740;9.106;2022-07-23T04:32:47;20.90;99.90
4487;DHT22;2256;48.740;9.106;2022-07-23T04:35:13;21.00;99.90
4487;DHT22;2256;48.740;9.106;2022-07-23T04:37:40;21.10;99.90
4487;DHT22;2256;48.740;9.106;2022-07-23T04:40:08;21.00;99.90
4487;DHT22;2256;48.740;9.106;2022-07-23T04:42:35;21.00;99.90
4487;DHT22;2256;48.740;9.106;2022-07-23T04:45:02;21.10;99.90
4487;DHT22;2256;48.740;9.106;2022-07-23T04:47:30;21.10;99.80
4487;DHT22;2256;48.740;9.106;2022-07-23T04:49:58;21.00;99.90
4487;DHT22;2256;48.740;9.106;2022-07-23T04:52:25;21.00;99.90
4487;DHT22;2256;48.740;9.106;2022-07-23T04:54:52;21.10;99.90
4487;DHT22;2256;48.740;9.106;2022-07-23T04:57:19;21.30;99.90
4487;DHT22;2256;48.740;9.106;2022-07-23T04:59:45;21.40;99.40
4487;DHT22;2256;48.740;9.106;2022-07-23T05:02:12;21.50;99.30
4487;DHT22;2256;48.740;9.106;2022-07-23T05:04:39;21.60;99.20
4487;DHT22;2256;48.740;9.106;2022-07-23T05:07:10;21.60;99.00
4487;DHT22;2256;48.740;9.106;2022-07-23T05:09:37;21.70;99.00
4487;DHT22;2256;48.740;9.106;2022-07-23T05:12:04;21.70;98.90
4487;DHT22;2256;48.740;9.106;2022-07-23T05:14:31;21.70;98.60
4487;DHT22;2256;48.740;9.106;2022-07-23T05:16:57;21.80;98.70
4487;DHT22;2256;48.740;9.106;2022-07-23T05:19:24;21.90;98.60
4487;DHT22;2256;48.740;9.106;2022-07-23T05:21:51;21.90;98.70
4487;DHT22;2256;48.740;9.106;2022-07-23T05:24:19;22.00;98.80
4487;DHT22;2256;48.740;9.106;2022-07-23T05:26:46;22.10;98.80
4487;DHT22;2256;48.740;9.106;2022-07-23T05:29:13;22.10;99.30
4487;DHT22;2256;48.740;9.106;2022-07-23T05:31:40;22.20;98.60
4487;DHT22;2256;48.740;9.106;2022-07-23T05:34:07;22.50;98.50
4487;DHT22;2256;48.740;9.106;2022-07-23T05:36:34;22.70;98.30
4487;DHT22;2256;48.740;9.106;2022-07-23T05:39:01;22.90;97.60
4487;DHT22;2256;48.740;9.106;2022-07-23T05:41:29;23.00;97.40
4487;DHT22;2256;48.740;9.106;2022-07-23T05:43:56;23.00;97.10
4487;DHT22;2256;48.740;9.106;2022-07-23T05:46:23;23.00;97.30
4487;DHT22;2256;48.740;9.106;2022-07-23T05:48:49;23.00;97.50
4487;DHT22;2256;48.740;9.106;2022-07-23T05:51:20;23.00;97.20
4487;DHT22;2256;48.740;9.106;2022-07-23T05:53:46;23.00;97.40
4487;DHT22;2256;48.740;9.106;2022-07-23T05:56:13;23.00;97.60
4487;DHT22;2256;48.740;9.106;2022-07-23T05:58:41;23.00;97.40
4487;DHT22;2256;48.740;9.106;2022-07-23T06:01:08;23.10;97.40
4487;DHT22;2256;48.740;9.106;2022-07-23T06:03:37;23.20;97.10
4487;DHT22;2256;48.740;9.106;2022-07-23T06:06:04;23.30;97.10
4487;DHT22;2256;48.740;9.106;2022-07-23T06:08:31;23.40;97.10
4487;DHT22;2256;48.740;9.106;2022-07-23T06:10:57;23.50;97.00
4487;DHT22;2256;48.740;9.106;2022-07-23T06:13:24;23.40;96.80
4487;DHT22;2256;48.740;9.106;2022-07-23T06:15:52;23.40;97.00
4487;DHT22;2256;48.740;9.106;2022-07-23T06:18:19;23.30;97.30
4487;DHT22;2256;48.740;9.106;2022-07-23T06:20:46;23.50;97.20
4487;DHT22;2256;48.740;9.106;2022-07-23T06:23:13;23.60;97.00
4487;DHT22;2256;48.740;9.106;2022-07-23T06:25:39;23.80;97.10
4487;DHT22;2256;48.740;9.106;2022-07-23T06:28:06;24.10;96.30
4487;DHT22;2256;48.740;9.106;2022-07-23T06:30:33;24.30;95.80
4487;DHT22;2256;48.740;9.106;2022-07-23T06:33:01;24.60;96.00
4487;DHT22;2256;48.740;9.106;2022-07-23T06:35:28;24.70;94.80
4487;DHT22;2256;48.740;9.106;2022-07-23T06:37:55;24.60;94.60
4487;DHT22;2256;48.740;9.106;2022-07-23T06:40:22;24.40;94.80
4487;DHT22;2256;48.740;9.106;2022-07-23T06:42:48;24.40;95.00
4487;DHT22;2256;48.740;9.106;2022-07-23T06:45:15;24.50;94.90
4487;DHT22;2256;48.740;9.106;2022-07-23T06:47:43;24.60;95.30
4487;DHT22;2256;48.740;9.106;2022-07-23T06:50:11;24.70;94.10
4487;DHT22;2256;48.740;9.106;2022-07-23T06:52:37;24.80;94.30
4487;DHT22;2256;48.740;9.106;2022-07-23T06:55:05;24.70;94.70
4487;DHT22;2256;48.740;9.106;2022-07-23T06:57:32;24.50;94.90
4487;DHT22;2256;48.740;9.106;2022-07-23T06:59:59;24.50;95.30
4487;DHT22;2256;48.740;9.106;2022-07-23T07:02:25;24.30;95.00
4487;DHT22;2256;48.740;9.106;2022-07-23T07:04:52;24.20;95.20
4487;DHT22;2256;48.740;9.106;2022-07-23T07:07:20;24.10;95.40
4487;DHT22;2256;48.740;9.106;2022-07-23T07:09:47;24.10;95.70
4487;DHT22;2256;48.740;9.106;2022-07-23T07:12:14;24.10;95.20
4487;DHT22;2256;48.740;9.106;2022-07-23T07:14:41;24.00;95.00
4487;DHT22;2256;48.740;9.106;2022-07-23T07:17:08;23.90;94.40
4487;DHT22;2256;48.740;9.106;2022-07-23T07:19:36;23.60;94.60
4487;DHT22;2256;48.740;9.106;2022-07-23T07:22:03;23.30;94.60
4487;DHT22;2256;48.740;9.106;2022-07-23T07:24:31;23.00;95.20
4487;DHT22;2256;48.740;9.106;2022-07-23T07:26:57;22.90;95.20
4487;DHT22;2256;48.740;9.106;2022-07-23T07:29:24;22.80;95.70
4487;DHT22;2256;48.740;9.106;2022-07-23T07:31:51;22.80;96.10
4487;DHT22;2256;48.740;9.106;2022-07-23T07:34:18;22.80;95.90
4487;DHT22;2256;48.740;9.106;2022-07-23T07:36:45;22.80;96.20
4487;DHT22;2256;48.740;9.106;2022-07-23T07:39:12;22.90;96.30
4487;DHT22;2256;48.740;9.106;2022-07-23T07:41:41;23.50;96.30
4487;DHT22;2256;48.740;9.106;2022-07-23T07:44:08;24.50;95.50
4487;DHT22;2256;48.740;9.106;2022-07-23T07:46:34;25.30;94.30
4487;DHT22;2256;48.740;9.106;2022-07-23T07:49:01;25.80;93.60
4487;DHT22;2256;48.740;9.106;2022-07-23T07:51:28;26.70;93.00
4487;DHT22;2256;48.740;9.106;2022-07-23T07:53:56;27.50;92.10
4487;DHT22;2256;48.740;9.106;2022-07-23T07:56:22;28.10;91.20
4487;DHT22;2256;48.740;9.106;2022-07-23T07:58:50;28.70;90.40
4487;DHT22;2256;48.740;9.106;2022-07-23T08:01:17;29.00;88.30
4487;DHT22;2256;48.740;9.106;2022-07-23T08:03:45;28.90;87.70
4487;DHT22;2256;48.740;9.106;2022-07-23T08:06:12;28.40;88.30
4487;DHT22;2256;48.740;9.106;2022-07-23T08:08:39;27.80;89.90
4487;DHT22;2256;48.740;9.106;2022-07-23T08:11:06;27.80;90.50
4487;DHT22;2256;48.740;9.106;2022-07-23T08:13:33;27.70;90.00
4487;DHT22;2256;48.740;9.106;2022-07-23T08:16:01;27.10;89.70
4487;DHT22;2256;48.740;9.106;2022-07-23T08:18:28;26.60;90.70
4487;DHT22;2256;48.740;9.106;2022-07-23T08:20:55;26.10;91.40
4487;DHT22;2256;48.740;9.106;2022-07-23T08:23:22;25.70;91.30
4487;DHT22;2256;48.740;9.106;2022-07-23T08:25:49;25.30;91.80
4487;DHT22;2256;48.740;9.106;2022-07-23T08:28:15;25.00;92.10
4487;DHT22;2256;48.740;9.106;2022-07-23T08:30:43;24.80;92.50
4487;DHT22;2256;48.740;9.106;2022-07-23T08:33:13;24.70;93.10
4487;DHT22;2256;48.740;9.106;2022-07-23T08:35:41;24.80;93.20
4487;DHT22;2256;48.740;9.106;2022-07-23T08:38:10;25.00;93.30
4487;DHT22;2256;48.740;9.106;2022-07-23T08:40:39;25.80;92.30
4487;DHT22;2256;48.740;9.106;2022-07-23T08:43:08;26.50;91.40
4487;DHT22;2256;48.740;9.106;2022-07-23T08:45:36;26.90;91.10
4487;DHT22;2256;48.740;9.106;2022-07-23T08:48:06;28.00;89.80
4487;DHT22;2256;48.740;9.106;2022-07-23T08:50:35;29.10;87.70
4487;DHT22;2256;48.740;9.106;2022-07-23T08:53:06;30.10;83.80
4487;DHT22;2256;48.740;9.106;2022-07-23T08:55:33;30.90;82.50
4487;DHT22;2256;48.740;9.106;2022-07-23T08:58:00;31.20;81.20
4487;DHT22;2256;48.740;9.106;2022-07-23T09:00:27;31.00;78.70
4487;DHT22;2256;48.740;9.106;2022-07-23T09:02:54;30.90;78.70
4487;DHT22;2256;48.740;9.106;2022-07-23T09:05:21;30.40;80.10
4487;DHT22;2256;48.740;9.106;2022-07-23T09:08:09;29.90;81.20
4487;DHT22;2256;48.740;9.106;2022-07-23T09:10:51;30.10;81.20
4487;DHT22;2256;48.740;9.106;2022-07-23T09:13:30;30.80;79.20
4487;DHT22;2256;48.740;9.106;2022-07-23T09:15:58;30.80;78.60
4487;DHT22;2256;48.740;9.106;2022-07-23T09:18:34;30.90;78.30
4487;DHT22;2256;48.740;9.106;2022-07-23T09:21:22;31.10;76.60
4487;DHT22;2256;48.740;9.106;2022-07-23T09:23:56;32.20;73.90
4487;DHT22;2256;48.740;9.106;2022-07-23T09:26:26;32.90;73.10
4487;DHT22;2256;48.740;9.106;2022-07-23T09:28:58;33.60;69.90
4487;DHT22;2256;48.740;9.106;2022-07-23T09:31:31;34.10;68.30
4487;DHT22;2256;48.740;9.106;2022-07-23T09:34:10;34.20;66.60
4487;DHT22;2256;48.740;9.106;2022-07-23T09:36:37;33.80;65.20
4487;DHT22;2256;48.740;9.106;2022-07-23T09:39:06;33.50;67.30
4487;DHT22;2256;48.740;9.106;2022-07-23T09:41:41;33.20;68.60
4487;DHT22;2256;48.740;9.106;2022-07-23T09:44:10;32.90;69.50
4487;DHT22;2256;48.740;9.106;2022-07-23T09:46:38;32.40;69.80
4487;DHT22;2256;48.740;9.106;2022-07-23T09:49:17;32.20;70.90
4487;DHT22;2256;48.740;9.106;2022-07-23T09:51:55;32.40;70.90
4487;DHT22;2256;48.740;9.106;2022-07-23T09:54:29;32.30;71.00
4487;DHT22;2256;48.740;9.106;2022-07-23T09:57:02;32.10;72.00
4487;DHT22;2256;48.740;9.106;2022-07-23T09:59:31;32.30;71.80
4487;DHT22;2256;48.740;9.106;2022-07-23T10:01:59;32.80;71.50
4487;DHT22;2256;48.740;9.106;2022-07-23T10:04:28;33.20;69.40
4487;DHT22;2256;48.740;9.106;2022-07-23T10:06:56;33.00;70.60
4487;DHT22;2256;48.740;9.106;2022-07-23T10:09:27;33.00;70.70
4487;DHT22;2256;48.740;9.106;2022-07-23T10:11:58;32.80;70.80
4487;DHT22;2256;48.740;9.106;2022-07-23T10:14:33;32.30;70.00
4487;DHT22;2256;48.740;9.106;2022-07-23T10:17:00;32.10;71.60
4487;DHT22;2256;48.740;9.106;2022-07-23T10:19:28;31.80;72.30
4487;DHT22;2256;48.740;9.106;2022-07-23T10:21:58;31.50;73.20
4487;DHT22;2256;48.740;9.106;2022-07-23T10:24:49;30.80;75.30
4487;DHT22;2256;48.740;9.106;2022-07-23T10:30:30;29.10;77.00
4487;DHT22;2256;48.740;9.106;2022-07-23T10:33:09;28.60;80.30
4487;DHT22;2256;48.740;9.106;2022-07-23T10:35:44;28.30;80.70
4487;DHT22;2256;48.740;9.106;2022-07-23T10:38:20;28.20;79.60
4487;DHT22;2256;48.740;9.106;2022-07-23T10:40:57;28.40;80.20
4487;DHT22;2256;48.740;9.106;2022-07-23T10:43:24;28.90;80.20
4487;DHT22;2256;48.740;9.106;2022-07-23T10:45:52;29.40;78.80
4487;DHT22;2256;48.740;9.106;2022-07-23T10:48:21;29.90;77.50
4487;DHT22;2256;48.740;9.106;2022-07-23T10:51:07;30.10;77.70
4487;DHT22;2256;48.740;9.106;2022-07-23T10:53:58;30.10;75.50
4487;DHT22;2256;48.740;9.106;2022-07-23T10:59:26;29.50;76.80
4487;DHT22;2256;48.740;9.106;2022-07-23T11:01:53;29.40;78.40
4487;DHT22;2256;48.740;9.106;2022-07-23T11:04:51;29.60;77.90
4487;DHT22;2256;48.740;9.106;2022-07-23T11:07:18;29.60;76.30
4487;DHT22;2256;48.740;9.106;2022-07-23T11:09:45;29.60;77.00
4487;DHT22;2256;48.740;9.106;2022-07-23T11:12:32;29.90;77.20
4487;DHT22;2256;48.740;9.106;2022-07-23T11:15:03;30.40;78.00
4487;DHT22;2256;48.740;9.106;2022-07-23T11:17:31;30.60;75.70
4487;DHT22;2256;48.740;9.106;2022-07-23T11:20:20;30.70;76.20
4487;DHT22;2256;48.740;9.106;2022-07-23T11:22:50;30.50;74.80
4487;DHT22;2256;48.740;9.106;2022-07-23T11:25:33;30.10;76.40
4487;DHT22;2256;48.740;9.106;2022-07-23T11:28:24;30.20;76.80
4487;DHT22;2256;48.740;9.106;2022-07-23T11:30:52;30.20;76.70
4487;DHT22;2256;48.740;9.106;2022-07-23T11:33:21;29.90;76.70
4487;DHT22;2256;48.740;9.106;2022-07-23T11:36:00;29.80;76.80
4487;DHT22;2256;48.740;9.106;2022-07-23T11:38:31;29.80;75.90
4487;DHT22;2256;48.740;9.106;2022-07-23T11:40:59;29.60;76.60
4487;DHT22;2256;48.740;9.106;2022-07-23T11:43:26;29.60;76.80
4487;DHT22;2256;48.740;9.106;2022-07-23T11:45:57;29.40;78.50
4487;DHT22;2256;48.740;9.106;2022-07-23T11:48:26;29.30;79.10
4487;DHT22;2256;48.740;9.106;2022-07-23T11:50:56;28.90;80.10
4487;DHT22;2256;48.740;9.106;2022-07-23T11:53:24;29.00;80.10
4487;DHT22;2256;48.740;9.106;2022-07-23T11:55:52;29.30;80.70
4487;DHT22;2256;48.740;9.106;2022-07-23T11:58:19;29.70;77.50
4487;DHT22;2256;48.740;9.106;2022-07-23T12:00:47;30.10;76.60
4487;DHT22;2256;48.740;9.106;2022-07-23T12:03:14;30.40;75.90
4487;DHT22;2256;48.740;9.106;2022-07-23T12:05:41;30.60;74.00
4487;DHT22;2256;48.740;9.106;2022-07-23T12:08:10;30.50;75.00
4487;DHT22;2256;48.740;9.106;2022-07-23T12:10:38;30.50;73.60
4487;DHT22;2256;48.740;9.106;2022-07-23T12:13:09;30.50;74.00
4487;DHT22;2256;48.740;9.106;2022-07-23T12:15:39;30.60;75.30
4487;DHT22;2256;48.740;9.106;2022-07-23T12:18:07;30.50;74.40
4487;DHT22;2256;48.740;9.106;2022-07-23T12:20:36;30.20;74.80
4487;DHT22;2256;48.740;9.106;2022-07-23T12:23:05;29.80;75.60
4487;DHT22;2256;48.740;9.106;2022-07-23T12:25:35;29.60;76.60
4487;DHT22;2256;48.740;9.106;2022-07-23T12:28:05;29.60;76.80
4487;DHT22;2256;48.740;9.106;2022-07-23T12:30:34;29.30;76.10
4487;DHT22;2256;48.740;9.106;2022-07-23T12:33:04;29.10;76.10
4487;DHT22;2256;48.740;9.106;2022-07-23T12:35:34;28.70;77.40
4487;DHT22;2256;48.740;9.106;2022-07-23T12:38:04;28.60;77.00
4487;DHT22;2256;48.740;9.106;2022-07-23T12:40:34;28.50;78.70
4487;DHT22;2256;48.740;9.106;2022-07-23T12:43:04;28.50;78.30
4487;DHT22;2256;48.740;9.106;2022-07-23T12:45:46;28.50;79.20
4487;DHT22;2256;48.740;9.106;2022-07-23T12:48:20;28.30;79.40
4487;DHT22;2256;48.740;9.106;2022-07-23T12:51:06;28.30;78.60
4487;DHT22;2256;48.740;9.106;2022-07-23T12:53:37;28.30;80.60
4487;DHT22;2256;48.740;9.106;2022-07-23T12:56:08;28.70;80.20
4487;DHT22;2256;48.740;9.106;2022-07-23T12:58:43;29.00;78.60
4487;DHT22;2256;48.740;9.106;2022-07-23T13:01:22;29.10;78.80
4487;DHT22;2256;48.740;9.106;2022-07-23T13:03:56;29.40;76.60
4487;DHT22;2256;48.740;9.106;2022-07-23T13:06:23;29.50;77.30
4487;DHT22;2256;48.740;9.106;2022-07-23T13:08:50;29.70;77.20
4487;DHT22;2256;48.740;9.106;2022-07-23T13:11:18;29.90;76.30
4487;DHT22;2256;48.740;9.106;2022-07-23T13:13:45;30.00;77.50
4487;DHT22;2256;48.740;9.106;2022-07-23T13:16:12;30.10;76.40
4487;DHT22;2256;48.740;9.106;2022-07-23T13:18:38;30.40;75.50
4487;DHT22;2256;48.740;9.106;2022-07-23T13:21:05;30.70;74.00
4487;DHT22;2256;48.740;9.106;2022-07-23T13:23:32;31.00;75.20
4487;DHT22;2256;48.740;9.106;2022-07-23T13:25:59;31.30;72.60
4487;DHT22;2256;48.740;9.106;2022-07-23T13:28:28;31.20;72.70
4487;DHT22;2256;48.740;9.106;2022-07-23T13:30:55;31.20;72.40
4487;DHT22;2256;48.740;9.106;2022-07-23T13:33:24;31.20;72.80
4487;DHT22;2256;48.740;9.106;2022-07-23T13:35:52;31.10;73.00
4487;DHT22;2256;48.740;9.106;2022-07-23T13:38:20;30.90;74.60
4487;DHT22;2256;48.740;9.106;2022-07-23T13:40:48;30.80;72.70
4487;DHT22;2256;48.740;9.106;2022-07-23T13:43:19;30.30;73.20
4487;DHT22;2256;48.740;9.106;2022-07-23T13:45:48;29.90;74.30
4487;DHT22;2256;48.740;9.106;2022-07-23T13:48:16;29.60;75.00
4487;DHT22;2256;48.740;9.106;2022-07-23T13:50:43;29.70;75.20
4487;DHT22;2256;48.740;9.106;2022-07-23T13:53:12;29.80;76.60
4487;DHT22;2256;48.740;9.106;2022-07-23T13:55:40;29.90;75.00
4487;DHT22;2256;48.740;9.106;2022-07-23T13:58:09;29.60;74.20
4487;DHT22;2256;48.740;9.106;2022-07-23T14:00:38;29.20;75.20
4487;DHT22;2256;48.740;9.106;2022-07-23T14:03:07;28.80;76.70
4487;DHT22;2256;48.740;9.106;2022-07-23T14:05:34;28.70;77.20
4487;DHT22;2256;48.740;9.106;2022-07-23T14:08:02;28.70;78.00
4487;DHT22;2256;48.740;9.106;2022-07-23T14:10:30;28.60;79.00
4487;DHT22;2256;48.740;9.106;2022-07-23T14:12:57;28.60;77.00
4487;DHT22;2256;48.740;9.106;2022-07-23T14:15:26;28.60;76.40
4487;DHT22;2256;48.740;9.106;2022-07-23T14:17:53;28.70;77.20
4487;DHT22;2256;48.740;9.106;2022-07-23T14:20:22;29.10;77.20
4487;DHT22;2256;48.740;9.106;2022-07-23T14:22:49;29.70;75.60
4487;DHT22;2256;48.740;9.106;2022-07-23T14:25:16;30.30;73.40
4487;DHT22;2256;48.740;9.106;2022-07-23T14:27:43;30.80;72.30
4487;DHT22;2256;48.740;9.106;2022-07-23T14:30:12;30.60;70.60
4487;DHT22;2256;48.740;9.106;2022-07-23T14:32:40;30.50;70.40
4487;DHT22;2256;48.740;9.106;2022-07-23T14:35:07;30.60;70.80
4487;DHT22;2256;48.740;9.106;2022-07-23T14:37:35;30.50;70.00
4487;DHT22;2256;48.740;9.106;2022-07-23T14:40:03;30.50;71.10
4487;DHT22;2256;48.740;9.106;2022-07-23T14:42:30;30.30;70.30
4487;DHT22;2256;48.740;9.106;2022-07-23T14:44:57;30.00;70.90
4487;DHT22;2256;48.740;9.106;2022-07-23T14:47:39;29.90;72.30
4487;DHT22;2256;48.740;9.106;2022-07-23T14:50:07;30.30;71.50
4487;DHT22;2256;48.740;9.106;2022-07-23T14:52:35;30.20;70.90
4487;DHT22;2256;48.740;9.106;2022-07-23T14:55:02;30.20;71.00
4487;DHT22;2256;48.740;9.106;2022-07-23T14:57:29;30.20;70.50
4487;DHT22;2256;48.740;9.106;2022-07-23T14:59:56;30.30;70.00
4487;DHT22;2256;48.740;9.106;2022-07-23T15:02:23;30.10;70.20
4487;DHT22;2256;48.740;9.106;2022-07-23T15:04:50;30.00;71.40
4487;DHT22;2256;48.740;9.106;2022-07-23T15:07:16;30.00;71.30
4487;DHT22;2256;48.740;9.106;2022-07-23T15:09:45;29.60;71.40
4487;DHT22;2256;48.740;9.106;2022-07-23T15:12:11;29.70;72.80
4487;DHT22;2256;48.740;9.106;2022-07-23T15:14:38;30.00;70.70
4487;DHT22;2256;48.740;9.106;2022-07-23T15:17:05;30.40;70.00
4487;DHT22;2256;48.740;9.106;2022-07-23T15:19:32;30.80;70.60
4487;DHT22;2256;48.740;9.106;2022-07-23T15:21:59;31.00;69.90
4487;DHT22;2256;48.740;9.106;2022-07-23T15:24:25;30.60;69.30
4487;DHT22;2256;48.740;9.106;2022-07-23T15:26:54;30.00;72.50
4487;DHT22;2256;48.740;9.106;2022-07-23T15:29:20;30.00;71.20
4487;DHT22;2256;48.740;9.106;2022-07-23T15:31:48;30.00;72.20
4487;DHT22;2256;48.740;9.106;2022-07-23T15:34:14;30.00;72.30
4487;DHT22;2256;48.740;9.106;2022-07-23T15:36:41;30.20;71.30
4487;DHT22;2256;48.740;9.106;2022-07-23T15:39:08;30.00;71.10
4487;DHT22;2256;48.740;9.106;2022-07-23T15:41:35;29.80;73.00
4487;DHT22;2256;48.740;9.106;2022-07-23T15:44:03;29.50;73.10
4487;DHT22;2256;48.740;9.106;2022-07-23T15:46:30;29.40;73.60
4487;DHT22;2256;48.740;9.106;2022-07-23T15:48:57;29.60;74.70
4487;DHT22;2256;48.740;9.106;2022-07-23T15:51:24;29.90;73.30
4487;DHT22;2256;48.740;9.106;2022-07-23T15:53:51;29.70;73.00
4487;DHT22;2256;48.740;9.106;2022-07-23T15:56:17;29.80;72.50
4487;DHT22;2256;48.740;9.106;2022-07-23T15:58:44;29.80;72.20
4487;DHT22;2256;48.740;9.106;2022-07-23T16:01:13;29.80;72.20
4487;DHT22;2256;48.740;9.106;2022-07-23T16:03:40;29.50;73.00
4487;DHT22;2256;48.740;9.106;2022-07-23T16:06:07;29.30;73.90
4487;DHT22;2256;48.740;9.106;2022-07-23T16:08:34;29.50;73.80
4487;DHT22;2256;48.740;9.106;2022-07-23T16:11:01;29.40;73.20
4487;DHT22;2256;48.740;9.106;2022-07-23T16:13:28;29.10;73.40
4487;DHT22;2256;48.740;9.106;2022-07-23T16:15:55;28.90;73.80